createdAt,value
2019-03-08T00:00:33.014Z,10.25
2019-03-08T00:01:38.528Z,10.36
2019-03-08T00:02:44.041Z,10.25
2019-03-08T00:03:49.544Z,10.21
2019-03-08T00:04:55.049Z,10.24
2019-03-08T00:06:00.576Z,10.25
2019-03-08T00:07:06.087Z,10.15
2019-03-08T00:08:11.581Z,10.15
2019-03-08T00:09:17.105Z,10.17
2019-03-08T00:10:22.607Z,10.18
2019-03-08T00:11:28.098Z,10.15
2019-03-08T00:12:33.618Z,10.17
2019-03-08T00:13:39.122Z,10.12
2019-03-08T00:14:44.632Z,10.17
2019-03-08T00:15:50.146Z,10.06
2019-03-08T00:16:55.662Z,10.06
2019-03-08T00:18:01.160Z,9.96
2019-03-08T00:19:06.669Z,9.96
2019-03-08T00:20:12.186Z,9.96
2019-03-08T00:21:17.696Z,10.03
2019-03-08T00:22:23.203Z,10.03
2019-03-08T00:23:28.710Z,10.04
2019-03-08T00:24:34.218Z,10.04
2019-03-08T00:25:39.745Z,10.01
2019-03-08T00:26:45.246Z,9.91
2019-03-08T00:27:50.784Z,9.81
2019-03-08T00:28:56.249Z,9.83
2019-03-08T00:30:01.763Z,9.73
2019-03-08T00:31:07.273Z,9.68
2019-03-08T00:32:12.779Z,9.75
2019-03-08T00:33:18.387Z,9.71
2019-03-08T00:34:23.821Z,9.64
2019-03-08T00:35:29.304Z,9.70
2019-03-08T00:36:34.830Z,9.58
2019-03-08T00:37:40.369Z,9.50
2019-03-08T00:38:45.835Z,9.56
2019-03-08T00:39:51.431Z,9.56
2019-03-08T00:40:56.856Z,9.53
2019-03-08T00:42:02.359Z,9.57
2019-03-08T00:43:07.868Z,9.58
2019-03-08T00:44:13.375Z,9.48
2019-03-08T00:45:18.889Z,9.49
2019-03-08T00:46:24.392Z,9.56
2019-03-08T00:47:29.903Z,9.52
2019-03-08T00:48:35.539Z,9.45
2019-03-08T00:49:40.925Z,9.48
2019-03-08T00:50:46.458Z,9.38
2019-03-08T00:51:51.938Z,9.45
2019-03-08T00:52:57.450Z,9.39
2019-03-08T00:54:02.954Z,9.48
2019-03-08T00:55:08.466Z,9.53
2019-03-08T00:56:13.967Z,9.32
2019-03-08T00:57:19.492Z,9.39
2019-03-08T00:58:24.988Z,9.46
2019-03-08T00:59:30.500Z,9.40
2019-03-08T01:00:36.005Z,9.42
2019-03-08T01:01:41.525Z,9.52
2019-03-08T01:02:47.025Z,9.56
2019-03-08T01:03:52.534Z,9.52
2019-03-08T01:04:58.059Z,9.42
2019-03-08T01:06:03.550Z,9.46
2019-03-08T01:07:09.059Z,9.52
2019-03-08T01:08:14.564Z,9.39
2019-03-08T01:09:20.090Z,9.40
2019-03-08T01:10:25.590Z,9.43
2019-03-08T01:11:31.093Z,9.35
2019-03-08T01:12:36.611Z,9.39
2019-03-08T01:13:42.111Z,9.38
2019-03-08T01:14:47.619Z,9.32
2019-03-08T01:15:53.130Z,9.42
2019-03-08T01:16:58.639Z,9.30
2019-03-08T01:18:04.147Z,9.38
2019-03-08T01:19:09.653Z,9.34
2019-03-08T01:20:15.167Z,9.34
2019-03-08T01:21:20.671Z,9.35
2019-03-08T01:22:26.178Z,9.38
2019-03-08T01:23:31.701Z,9.35
2019-03-08T01:24:37.196Z,9.38
2019-03-08T01:25:42.711Z,9.46
2019-03-08T01:26:48.219Z,9.39
2019-03-08T01:27:53.717Z,9.32
2019-03-08T01:28:59.236Z,9.39
2019-03-08T01:30:04.739Z,9.38
2019-03-08T01:31:10.252Z,9.34
2019-03-08T01:32:15.756Z,9.38
2019-03-08T01:33:21.267Z,9.39
2019-03-08T01:34:26.782Z,9.56
2019-03-08T01:35:32.281Z,9.56
2019-03-08T01:36:37.791Z,9.52
2019-03-08T01:37:43.300Z,9.50
2019-03-08T01:38:48.802Z,9.56
2019-03-08T01:39:54.312Z,9.52
2019-03-08T01:40:59.825Z,9.48
2019-03-08T01:42:05.335Z,9.53
2019-03-08T01:43:10.841Z,9.57
2019-03-08T01:44:16.357Z,9.52
2019-03-08T01:45:21.858Z,9.57
2019-03-08T01:46:27.365Z,9.56
2019-03-08T01:47:32.879Z,9.58
2019-03-08T01:48:38.383Z,9.50
2019-03-08T01:49:43.904Z,9.50
2019-03-08T01:50:49.404Z,9.56
2019-03-08T01:52:15.901Z,9.49
2019-03-08T01:53:00.428Z,9.52
2019-03-08T01:54:26.929Z,9.56
2019-03-08T01:55:11.441Z,9.50
2019-03-08T01:56:16.946Z,9.46
2019-03-08T01:57:22.460Z,9.53
2019-03-08T01:58:27.964Z,9.46
2019-03-08T01:59:33.472Z,9.56
2019-03-08T02:00:40.817Z,9.52
2019-03-08T02:01:44.490Z,9.56
2019-03-08T02:02:49.999Z,9.52
2019-03-08T02:03:55.510Z,9.53
2019-03-08T02:05:01.014Z,9.61
2019-03-08T02:06:06.520Z,9.50
2019-03-08T02:07:12.034Z,9.52
2019-03-08T02:08:17.540Z,9.52
2019-03-08T02:09:23.047Z,9.52
2019-03-08T02:10:28.559Z,9.50
2019-03-08T02:11:34.067Z,9.49
2019-03-08T02:12:39.576Z,9.46
2019-03-08T02:13:45.083Z,9.35
2019-03-08T02:14:50.595Z,9.50
2019-03-08T02:15:56.100Z,9.40
2019-03-08T02:17:01.610Z,9.50
2019-03-08T02:18:07.118Z,9.53
2019-03-08T02:19:12.626Z,9.43
2019-03-08T02:20:18.139Z,9.56
2019-03-08T02:21:23.643Z,9.49
2019-03-08T02:22:29.175Z,9.43
2019-03-08T02:23:34.665Z,9.42
2019-03-08T02:24:40.188Z,9.45
2019-03-08T02:25:45.809Z,9.49
2019-03-08T02:26:51.186Z,9.53
2019-03-08T02:27:56.699Z,9.49
2019-03-08T02:29:02.205Z,9.49
2019-03-08T02:30:07.715Z,9.43
2019-03-08T02:31:13.223Z,9.39
2019-03-08T02:32:18.731Z,9.38
2019-03-08T02:33:24.241Z,9.38
2019-03-08T02:34:29.747Z,9.31
2019-03-08T02:35:35.256Z,9.35
2019-03-08T02:36:40.764Z,9.34
2019-03-08T02:37:46.273Z,9.35
2019-03-08T02:38:51.782Z,9.40
2019-03-08T02:39:57.290Z,9.27
2019-03-08T02:41:02.795Z,9.34
2019-03-08T02:42:08.322Z,9.31
2019-03-08T02:43:13.815Z,9.30
2019-03-08T02:44:19.330Z,9.24
2019-03-08T02:45:24.833Z,9.35
2019-03-08T02:46:30.344Z,9.25
2019-03-08T02:47:35.913Z,9.35
2019-03-08T02:48:41.359Z,9.25
2019-03-08T02:49:46.870Z,9.38
2019-03-08T02:50:52.374Z,9.38
2019-03-08T02:51:57.885Z,9.38
2019-03-08T02:53:03.397Z,9.38
2019-03-08T02:54:08.904Z,9.38
2019-03-08T02:55:14.415Z,9.32
2019-03-08T02:56:19.921Z,9.34
2019-03-08T02:57:25.429Z,9.32
2019-03-08T02:58:30.941Z,9.39
2019-03-08T02:59:36.439Z,9.40
2019-03-08T03:00:41.963Z,9.39
2019-03-08T03:01:47.460Z,9.40
2019-03-08T03:02:52.969Z,9.31
2019-03-08T03:03:58.477Z,9.42
2019-03-08T03:05:03.988Z,9.45
2019-03-08T03:06:09.500Z,9.58
2019-03-08T03:07:15.004Z,9.48
2019-03-08T03:08:20.513Z,9.52
2019-03-08T03:09:26.024Z,9.48
2019-03-08T03:10:31.534Z,9.48
2019-03-08T03:11:37.040Z,9.40
2019-03-08T03:12:42.555Z,9.42
2019-03-08T03:13:48.055Z,9.50
2019-03-08T03:14:53.565Z,9.49
2019-03-08T03:15:59.077Z,9.40
2019-03-08T03:17:04.585Z,9.40
2019-03-08T03:18:10.094Z,9.42
2019-03-08T03:19:15.603Z,9.38
2019-03-08T03:20:21.113Z,9.32
2019-03-08T03:21:26.620Z,9.38
2019-03-08T03:22:32.125Z,9.32
2019-03-08T03:23:37.644Z,9.30
2019-03-08T03:24:43.146Z,9.34
2019-03-08T03:25:48.655Z,9.31
2019-03-08T03:26:54.161Z,9.32
2019-03-08T03:27:59.669Z,9.32
2019-03-08T03:29:05.179Z,9.34
2019-03-08T03:30:10.689Z,9.21
2019-03-08T03:31:16.195Z,9.21
2019-03-08T03:32:21.717Z,9.15
2019-03-08T03:33:27.212Z,9.09
2019-03-08T03:34:32.727Z,9.09
2019-03-08T03:35:38.228Z,9.06
2019-03-08T03:36:43.741Z,9.09
2019-03-08T03:37:49.248Z,9.04
2019-03-08T03:38:54.758Z,8.96
2019-03-08T03:40:00.353Z,9.01
2019-03-08T03:41:05.772Z,8.99
2019-03-08T03:42:11.289Z,8.97
2019-03-08T03:43:16.801Z,9.04
2019-03-08T03:44:22.300Z,8.87
2019-03-08T03:45:27.810Z,8.87
2019-03-08T03:46:33.316Z,8.87
2019-03-08T03:47:38.823Z,8.94
2019-03-08T03:48:44.328Z,8.99
2019-03-08T03:49:49.839Z,8.91
2019-03-08T03:50:55.349Z,8.94
2019-03-08T03:52:00.857Z,8.87
2019-03-08T03:53:06.367Z,8.90
2019-03-08T03:54:11.892Z,8.96
2019-03-08T03:55:17.400Z,8.90
2019-03-08T03:56:22.893Z,8.99
2019-03-08T03:57:28.398Z,8.96
2019-03-08T03:58:33.908Z,8.94
2019-03-08T03:59:39.418Z,8.97
2019-03-08T04:00:44.925Z,8.88
2019-03-08T04:01:50.430Z,8.94
2019-03-08T04:02:55.942Z,8.91
2019-03-08T04:04:01.448Z,8.96
2019-03-08T04:05:06.963Z,9.01
2019-03-08T04:06:12.466Z,8.90
2019-03-08T04:07:17.979Z,8.88
2019-03-08T04:08:23.484Z,8.94
2019-03-08T04:09:29.000Z,8.97
2019-03-08T04:10:34.508Z,8.96
2019-03-08T04:11:40.013Z,8.94
2019-03-08T04:12:45.518Z,8.94
2019-03-08T04:13:51.024Z,8.94
2019-03-08T04:14:56.536Z,8.93
2019-03-08T04:16:02.040Z,8.99
2019-03-08T04:17:07.554Z,8.94
2019-03-08T04:18:13.056Z,9.02
2019-03-08T04:19:18.567Z,8.99
2019-03-08T04:20:24.075Z,9.02
2019-03-08T04:21:29.587Z,8.99
2019-03-08T04:22:35.093Z,8.99
2019-03-08T04:23:40.601Z,8.97
2019-03-08T04:24:46.115Z,9.02
2019-03-08T04:25:51.617Z,8.99
2019-03-08T04:26:57.123Z,8.94
2019-03-08T04:28:02.637Z,8.96
2019-03-08T04:29:08.142Z,9.01
2019-03-08T04:30:13.653Z,9.02
2019-03-08T04:31:19.162Z,9.04
2019-03-08T04:32:24.672Z,9.13
2019-03-08T04:33:30.176Z,9.15
2019-03-08T04:34:35.689Z,9.15
2019-03-08T04:35:41.197Z,9.24
2019-03-08T04:36:46.704Z,9.13
2019-03-08T04:37:52.210Z,9.20
2019-03-08T04:38:57.721Z,9.05
2019-03-08T04:40:03.227Z,9.15
2019-03-08T04:41:08.740Z,9.06
2019-03-08T04:42:14.251Z,9.09
2019-03-08T04:43:19.756Z,9.04
2019-03-08T04:44:25.263Z,9.05
2019-03-08T04:45:30.769Z,9.05
2019-03-08T04:46:36.279Z,9.10
2019-03-08T04:47:41.799Z,9.09
2019-03-08T04:48:47.303Z,9.13
2019-03-08T04:49:52.802Z,9.16
2019-03-08T04:50:58.315Z,9.06
2019-03-08T04:52:03.821Z,9.12
2019-03-08T04:53:09.338Z,9.09
2019-03-08T04:54:14.840Z,9.16
2019-03-08T04:55:20.345Z,9.05
2019-03-08T04:56:25.866Z,9.10
2019-03-08T04:57:31.365Z,9.18
2019-03-08T04:58:36.872Z,9.15
2019-03-08T04:59:42.384Z,9.20
2019-03-08T05:00:47.893Z,9.21
2019-03-08T05:01:53.398Z,9.12
2019-03-08T05:02:58.908Z,9.25
2019-03-08T05:04:04.417Z,9.13
2019-03-08T05:05:09.927Z,9.20
2019-03-08T05:06:15.432Z,9.20
2019-03-08T05:07:20.943Z,9.25
2019-03-08T05:08:26.469Z,9.20
2019-03-08T05:09:31.955Z,9.23
2019-03-08T05:10:37.466Z,9.21
2019-03-08T05:11:42.979Z,9.25
2019-03-08T05:12:48.487Z,9.25
2019-03-08T05:13:53.994Z,9.16
2019-03-08T05:14:59.501Z,9.16
2019-03-08T05:16:05.013Z,9.27
2019-03-08T05:17:10.517Z,9.23
2019-03-08T05:18:16.028Z,9.25
2019-03-08T05:19:21.537Z,9.21
2019-03-08T05:20:27.053Z,9.23
2019-03-08T05:21:32.554Z,9.25
2019-03-08T05:22:38.065Z,9.25
2019-03-08T05:23:43.570Z,9.24
2019-03-08T05:24:49.098Z,9.23
2019-03-08T05:25:54.589Z,9.30
2019-03-08T05:27:00.098Z,9.21
2019-03-08T05:28:05.610Z,9.21
2019-03-08T05:29:11.118Z,9.23
2019-03-08T05:30:16.628Z,9.25
2019-03-08T05:31:22.170Z,9.27
2019-03-08T05:32:27.639Z,9.30
2019-03-08T05:33:33.147Z,9.27
2019-03-08T05:34:38.656Z,9.25
2019-03-08T05:35:44.176Z,9.21
2019-03-08T05:36:49.674Z,9.24
2019-03-08T05:37:55.189Z,9.13
2019-03-08T05:39:00.691Z,9.30
2019-03-08T05:40:06.201Z,9.30
2019-03-08T05:41:11.707Z,9.31
2019-03-08T05:42:17.218Z,9.27
2019-03-08T05:43:22.729Z,9.23
2019-03-08T05:44:28.242Z,9.20
2019-03-08T05:45:33.743Z,9.27
2019-03-08T05:46:39.257Z,9.25
2019-03-08T05:47:44.764Z,9.25
2019-03-08T05:48:50.267Z,9.30
2019-03-08T05:49:55.778Z,9.25
2019-03-08T05:51:01.293Z,9.15
2019-03-08T05:52:06.794Z,9.27
2019-03-08T05:53:12.444Z,9.32
2019-03-08T05:54:17.813Z,9.30
2019-03-08T05:55:23.320Z,9.30
2019-03-08T05:56:28.828Z,9.31
2019-03-08T05:57:34.338Z,9.32
2019-03-08T05:58:39.847Z,9.31
2019-03-08T05:59:45.525Z,9.24
2019-03-08T06:00:50.864Z,9.30
2019-03-08T06:01:56.376Z,9.30
2019-03-08T06:03:01.883Z,9.25
2019-03-08T06:04:07.389Z,9.30
2019-03-08T06:05:12.907Z,9.34
2019-03-08T06:06:18.408Z,9.35
2019-03-08T06:07:23.915Z,9.32
2019-03-08T06:08:29.423Z,9.34
2019-03-08T06:09:34.932Z,9.35
2019-03-08T06:10:40.452Z,9.35
2019-03-08T06:11:45.953Z,9.35
2019-03-08T06:12:51.460Z,9.35
2019-03-08T06:13:56.963Z,9.35
2019-03-08T06:15:02.475Z,9.32
2019-03-08T06:16:07.987Z,9.34
2019-03-08T06:17:13.494Z,9.34
2019-03-08T06:18:19.004Z,9.39
2019-03-08T06:19:24.512Z,9.48
2019-03-08T06:20:30.015Z,9.38
2019-03-08T06:21:35.528Z,9.38
2019-03-08T06:22:41.028Z,9.34
2019-03-08T06:23:46.546Z,9.39
2019-03-08T06:24:52.052Z,9.38
2019-03-08T06:25:57.562Z,9.42
2019-03-08T06:27:03.077Z,9.38
2019-03-08T06:28:08.581Z,9.28
2019-03-08T06:29:14.098Z,9.30
2019-03-08T06:30:19.609Z,9.28
2019-03-08T06:31:25.105Z,9.30
2019-03-08T06:32:30.620Z,9.30
2019-03-08T06:33:36.129Z,9.38
2019-03-08T06:34:41.634Z,9.38
2019-03-08T06:35:47.144Z,9.39
2019-03-08T06:36:52.649Z,9.32
2019-03-08T06:37:58.158Z,9.38
2019-03-08T06:39:03.666Z,9.35
2019-03-08T06:40:09.177Z,9.52
2019-03-08T06:41:14.686Z,9.56
2019-03-08T06:42:20.193Z,9.53
2019-03-08T06:43:25.705Z,9.48
2019-03-08T06:44:31.210Z,9.53
2019-03-08T06:45:36.717Z,9.49
2019-03-08T06:46:42.230Z,9.42
2019-03-08T06:47:47.739Z,9.46
2019-03-08T06:48:53.244Z,9.43
2019-03-08T06:49:58.758Z,9.50
2019-03-08T06:51:04.267Z,9.56
2019-03-08T06:52:09.773Z,9.49
2019-03-08T06:53:15.282Z,9.52
2019-03-08T06:54:20.794Z,9.48
2019-03-08T06:55:26.295Z,9.56
2019-03-08T06:56:31.804Z,9.52
2019-03-08T06:57:37.316Z,9.56
2019-03-08T06:58:42.826Z,9.57
2019-03-08T06:59:48.329Z,9.53
2019-03-08T07:00:53.844Z,9.52
2019-03-08T07:01:59.350Z,9.53
2019-03-08T07:03:04.873Z,9.57
2019-03-08T07:04:10.365Z,9.58
2019-03-08T07:05:15.879Z,9.56
2019-03-08T07:06:21.389Z,9.57
2019-03-08T07:07:26.894Z,9.60
2019-03-08T07:08:32.405Z,9.52
2019-03-08T07:09:37.912Z,9.52
2019-03-08T07:10:43.423Z,9.57
2019-03-08T07:11:48.931Z,9.53
2019-03-08T07:13:02.898Z,9.56
2019-03-08T07:13:59.949Z,9.53
2019-03-08T07:15:05.479Z,9.50
2019-03-08T07:16:13.278Z,9.64
2019-03-08T07:17:16.479Z,9.52
2019-03-08T07:18:21.985Z,9.52
2019-03-08T07:19:27.493Z,9.61
2019-03-08T07:20:33.002Z,9.52
2019-03-08T07:21:38.511Z,9.66
2019-03-08T07:22:44.018Z,9.63
2019-03-08T07:23:49.526Z,9.61
2019-03-08T07:24:55.038Z,9.64
2019-03-08T07:26:00.556Z,9.53
2019-03-08T07:27:06.054Z,9.50
2019-03-08T07:28:11.564Z,9.56
2019-03-08T07:29:17.074Z,9.56
2019-03-08T07:30:22.577Z,9.52
2019-03-08T07:31:28.085Z,9.56
2019-03-08T07:32:33.599Z,9.53
2019-03-08T07:33:39.109Z,9.56
2019-03-08T07:34:44.616Z,9.58
2019-03-08T07:35:50.134Z,9.58
2019-03-08T07:36:55.636Z,9.56
2019-03-08T07:38:01.144Z,9.60
2019-03-08T07:39:06.660Z,9.53
2019-03-08T07:40:12.159Z,9.63
2019-03-08T07:41:17.668Z,9.50
2019-03-08T07:42:23.178Z,9.56
2019-03-08T07:43:28.688Z,9.66
2019-03-08T07:44:34.191Z,9.71
2019-03-08T07:45:39.710Z,9.67
2019-03-08T07:46:45.217Z,9.78
2019-03-08T07:47:50.722Z,9.82
2019-03-08T07:48:56.230Z,9.78
2019-03-08T07:50:01.746Z,9.82
2019-03-08T07:51:07.244Z,9.78
2019-03-08T07:52:12.766Z,9.81
2019-03-08T07:53:18.253Z,9.81
2019-03-08T07:54:23.787Z,9.86
2019-03-08T07:55:29.289Z,9.79
2019-03-08T07:56:34.799Z,9.79
2019-03-08T07:57:40.302Z,9.91
2019-03-08T07:58:45.807Z,9.91
2019-03-08T07:59:53.959Z,9.99
2019-03-08T08:00:56.828Z,9.94
2019-03-08T08:02:02.336Z,9.97
2019-03-08T08:03:07.849Z,9.99
2019-03-08T08:04:13.359Z,10.03
2019-03-08T08:05:18.865Z,10.12
2019-03-08T08:06:24.388Z,10.06
2019-03-08T08:07:29.880Z,10.09
2019-03-08T08:08:35.392Z,10.09
2019-03-08T08:09:40.902Z,10.06
2019-03-08T08:10:46.406Z,10.17
2019-03-08T08:11:51.917Z,10.12
2019-03-08T08:12:57.446Z,10.10
2019-03-08T08:14:02.937Z,10.15
2019-03-08T08:15:08.446Z,10.12
2019-03-08T08:16:13.954Z,10.15
2019-03-08T08:17:19.478Z,10.14
2019-03-08T08:18:24.973Z,10.15
2019-03-08T08:19:30.487Z,10.12
2019-03-08T08:20:35.992Z,10.09
2019-03-08T08:21:41.504Z,10.09
2019-03-08T08:22:47.007Z,10.09
2019-03-08T08:23:52.524Z,10.14
2019-03-08T08:24:58.029Z,10.17
2019-03-08T08:26:03.534Z,10.10
2019-03-08T08:27:09.045Z,10.06
2019-03-08T08:28:14.569Z,10.19
2019-03-08T08:29:20.062Z,10.21
2019-03-08T08:30:25.572Z,10.19
2019-03-08T08:31:31.083Z,10.24
2019-03-08T08:32:36.596Z,10.34
2019-03-08T08:33:42.101Z,10.36
2019-03-08T08:34:47.613Z,10.28
2019-03-08T08:35:53.117Z,10.34
2019-03-08T08:36:58.627Z,10.33
2019-03-08T08:38:04.139Z,10.39
2019-03-08T08:39:09.650Z,10.51
2019-03-08T08:40:15.153Z,10.53
2019-03-08T08:41:20.669Z,10.60
2019-03-08T08:42:26.193Z,10.60
2019-03-08T08:43:31.683Z,10.60
2019-03-08T08:44:37.190Z,10.63
2019-03-08T08:45:42.760Z,10.60
2019-03-08T08:46:48.213Z,10.73
2019-03-08T08:47:53.717Z,10.71
2019-03-08T08:48:59.238Z,10.80
2019-03-08T08:50:04.739Z,10.78
2019-03-08T08:51:10.246Z,10.77
2019-03-08T08:52:15.758Z,10.65
2019-03-08T08:53:21.268Z,10.77
2019-03-08T08:54:26.781Z,10.71
2019-03-08T08:55:32.287Z,10.73
2019-03-08T08:56:37.797Z,10.77
2019-03-08T08:57:43.306Z,10.76
2019-03-08T08:58:48.812Z,10.78
2019-03-08T08:59:54.324Z,10.81
2019-03-08T09:00:59.831Z,10.77
2019-03-08T09:02:05.344Z,10.77
2019-03-08T09:03:10.868Z,10.81
2019-03-08T09:04:16.361Z,10.81
2019-03-08T09:05:21.878Z,10.83
2019-03-08T09:06:27.381Z,10.83
2019-03-08T09:07:32.888Z,10.83
2019-03-08T09:08:38.398Z,11.06
2019-03-08T09:09:43.916Z,10.99
2019-03-08T09:10:49.426Z,11.02
2019-03-08T09:11:54.927Z,10.92
2019-03-08T09:13:00.438Z,10.91
2019-03-08T09:14:05.952Z,10.92
2019-03-08T09:15:11.463Z,10.98
2019-03-08T09:16:16.973Z,10.94
2019-03-08T09:17:22.477Z,10.89
2019-03-08T09:18:27.980Z,11.01
2019-03-08T09:19:33.493Z,11.03
2019-03-08T09:20:39.010Z,11.01
2019-03-08T09:21:44.514Z,10.96
2019-03-08T09:22:50.025Z,11.06
2019-03-08T09:23:55.533Z,11.07
2019-03-08T09:25:01.043Z,11.13
2019-03-08T09:26:06.550Z,11.09
2019-03-08T09:27:12.068Z,11.17
2019-03-08T09:28:17.573Z,11.20
2019-03-08T09:29:23.103Z,11.10
2019-03-08T09:30:28.587Z,11.16
2019-03-08T09:31:34.100Z,11.16
2019-03-08T09:32:39.611Z,11.24
2019-03-08T09:33:45.118Z,11.31
2019-03-08T09:34:50.631Z,11.20
2019-03-08T09:35:56.140Z,11.17
2019-03-08T09:37:01.655Z,11.16
2019-03-08T09:38:07.164Z,11.28
2019-03-08T09:39:12.674Z,11.27
2019-03-08T09:40:18.180Z,11.21
2019-03-08T09:41:23.689Z,11.19
2019-03-08T09:42:29.207Z,11.14
2019-03-08T09:43:34.708Z,11.17
2019-03-08T09:44:40.215Z,11.21
2019-03-08T09:45:45.731Z,11.35
2019-03-08T09:46:51.269Z,11.35
2019-03-08T09:47:56.747Z,11.43
2019-03-08T09:49:02.255Z,11.39
2019-03-08T09:50:07.766Z,11.50
2019-03-08T09:51:13.273Z,11.52
2019-03-08T09:52:18.785Z,11.53
2019-03-08T09:53:24.294Z,11.43
2019-03-08T09:54:29.804Z,11.54
2019-03-08T09:55:35.331Z,11.57
2019-03-08T09:56:40.826Z,11.57
2019-03-08T09:57:46.334Z,11.61
2019-03-08T09:58:51.852Z,11.65
2019-03-08T09:59:57.349Z,11.72
2019-03-08T10:01:02.864Z,11.80
2019-03-08T10:02:08.380Z,11.83
2019-03-08T10:03:13.883Z,11.85
2019-03-08T10:04:19.393Z,11.96
2019-03-08T10:05:24.902Z,11.85
2019-03-08T10:06:30.413Z,11.83
2019-03-08T10:07:35.922Z,11.85
2019-03-08T10:08:41.433Z,11.83
2019-03-08T10:09:46.940Z,11.85
2019-03-08T10:10:52.450Z,11.90
2019-03-08T10:11:57.978Z,11.89
2019-03-08T10:13:03.471Z,12.02
2019-03-08T10:14:08.981Z,11.99
2019-03-08T10:15:14.494Z,12.08
2019-03-08T10:16:20.010Z,12.08
2019-03-08T10:17:25.512Z,12.04
2019-03-08T10:18:31.022Z,11.97
2019-03-08T10:19:36.534Z,12.08
2019-03-08T10:20:42.044Z,11.97
2019-03-08T10:21:47.555Z,12.06
2019-03-08T10:22:53.060Z,12.13
2019-03-08T10:23:58.585Z,12.15
2019-03-08T10:25:04.090Z,12.19
2019-03-08T10:26:09.595Z,12.16
2019-03-08T10:27:15.104Z,12.29
2019-03-08T10:28:20.614Z,12.38
2019-03-08T10:29:26.124Z,12.51
2019-03-08T10:30:32.033Z,12.52
2019-03-08T10:31:37.161Z,12.57
2019-03-08T10:32:42.658Z,12.42
2019-03-08T10:33:48.165Z,12.44
2019-03-08T10:34:53.676Z,12.31
2019-03-08T10:35:59.188Z,12.39
2019-03-08T10:37:04.699Z,12.27
2019-03-08T10:38:10.207Z,12.30
2019-03-08T10:39:15.719Z,12.29
2019-03-08T10:40:21.235Z,12.29
2019-03-08T10:41:26.741Z,12.30
2019-03-08T10:42:32.249Z,12.27
2019-03-08T10:43:37.780Z,12.26
2019-03-08T10:44:43.276Z,12.21
2019-03-08T10:45:48.784Z,12.20
2019-03-08T10:46:54.299Z,12.09
2019-03-08T10:47:59.800Z,12.20
2019-03-08T10:49:05.315Z,12.05
2019-03-08T10:50:10.825Z,11.97
2019-03-08T10:51:16.331Z,12.05
2019-03-08T10:52:21.843Z,11.94
2019-03-08T10:53:27.353Z,11.93
2019-03-08T10:54:32.865Z,11.80
2019-03-08T10:55:38.373Z,11.74
2019-03-08T10:56:43.902Z,11.62
2019-03-08T10:57:49.393Z,11.49
2019-03-08T10:58:55.183Z,11.47
2019-03-08T11:00:00.415Z,11.39
2019-03-08T11:01:05.927Z,11.27
2019-03-08T11:02:11.433Z,11.14
2019-03-08T11:03:16.950Z,11.10
2019-03-08T11:04:22.455Z,11.07
2019-03-08T11:05:27.966Z,11.03
2019-03-08T11:06:33.476Z,10.98
2019-03-08T11:07:38.988Z,10.96
2019-03-08T11:08:44.498Z,10.99
2019-03-08T11:09:50.005Z,10.88
2019-03-08T11:10:55.519Z,11.09
2019-03-08T11:12:01.024Z,11.07
2019-03-08T11:13:06.541Z,11.13
2019-03-08T11:14:12.044Z,11.11
2019-03-08T11:15:24.187Z,11.10
2019-03-08T11:16:24.962Z,11.06
2019-03-08T11:17:28.573Z,11.09
2019-03-08T11:18:34.082Z,11.09
2019-03-08T11:19:39.602Z,10.98
2019-03-08T11:20:46.438Z,11.06
2019-03-08T11:21:50.614Z,11.06
2019-03-08T11:22:56.127Z,11.01
2019-03-08T11:24:01.639Z,11.07
2019-03-08T11:25:08.417Z,11.01
2019-03-08T11:26:12.651Z,11.02
2019-03-08T11:27:18.160Z,11.03
2019-03-08T11:28:23.675Z,10.88
2019-03-08T11:29:29.189Z,11.02
2019-03-08T11:30:34.706Z,11.09
2019-03-08T11:31:40.238Z,11.13
2019-03-08T11:32:46.360Z,11.16
2019-03-08T11:33:51.229Z,11.21
2019-03-08T11:34:56.734Z,11.24
2019-03-08T11:36:02.238Z,11.41
2019-03-08T11:37:07.747Z,11.49
2019-03-08T11:38:13.259Z,11.54
2019-03-08T11:39:18.769Z,11.47
2019-03-08T11:40:24.279Z,11.43
2019-03-08T11:41:29.789Z,11.43
2019-03-08T11:42:35.302Z,11.44
2019-03-08T11:43:40.810Z,11.39
2019-03-08T11:44:46.335Z,11.38
2019-03-08T11:45:51.825Z,11.36
2019-03-08T11:46:57.346Z,11.39
2019-03-08T11:48:02.847Z,11.35
2019-03-08T11:49:08.376Z,11.36
2019-03-08T11:50:13.871Z,11.31
2019-03-08T11:51:19.377Z,11.29
2019-03-08T11:52:24.900Z,11.20
2019-03-08T11:53:30.398Z,11.16
2019-03-08T11:54:40.799Z,11.20
2019-03-08T11:55:41.416Z,11.19
2019-03-08T11:56:55.696Z,11.29
2019-03-08T11:57:52.443Z,11.39
2019-03-08T11:58:57.947Z,11.43
2019-03-08T12:00:03.455Z,11.46
2019-03-08T12:01:08.963Z,11.62
2019-03-08T12:02:14.477Z,11.90
2019-03-08T12:03:19.992Z,11.82
2019-03-08T12:04:25.526Z,12.01
2019-03-08T12:05:31.010Z,11.99
2019-03-08T12:06:36.513Z,12.02
2019-03-08T12:07:42.023Z,12.16
2019-03-08T12:08:47.542Z,12.29
2019-03-08T12:09:53.045Z,12.45
2019-03-08T12:10:58.552Z,12.52
2019-03-08T12:12:04.061Z,12.60
2019-03-08T12:13:09.572Z,12.66
2019-03-08T12:14:15.086Z,12.70
2019-03-08T12:15:20.591Z,12.82
2019-03-08T12:16:26.103Z,13.02
2019-03-08T12:17:31.617Z,13.11
2019-03-08T12:18:37.124Z,13.21
2019-03-08T12:19:42.637Z,13.20
2019-03-08T12:20:48.149Z,13.30
2019-03-08T12:21:53.659Z,13.55
2019-03-08T12:22:59.170Z,13.71
2019-03-08T12:24:04.681Z,13.84
2019-03-08T12:25:10.192Z,14.10
2019-03-08T12:26:15.710Z,14.27
2019-03-08T12:27:21.211Z,14.87
2019-03-08T12:28:26.722Z,15.31
2019-03-08T12:29:32.233Z,15.60
2019-03-08T12:30:37.764Z,15.72
2019-03-08T12:31:43.255Z,15.76
2019-03-08T12:32:48.766Z,16.06
2019-03-08T12:33:54.279Z,16.14
2019-03-08T12:34:59.797Z,16.74
2019-03-08T12:36:05.307Z,16.88
2019-03-08T12:37:10.822Z,17.26
2019-03-08T12:38:16.363Z,17.59
2019-03-08T12:39:21.831Z,17.71
2019-03-08T12:40:27.350Z,18.54
2019-03-08T12:41:32.889Z,19.83
2019-03-08T12:42:38.380Z,20.16
2019-03-08T12:43:45.091Z,20.89
2019-03-08T12:44:49.402Z,22.29
2019-03-08T12:45:54.923Z,23.39
2019-03-08T12:47:00.426Z,23.77
2019-03-08T12:48:05.946Z,24.54
2019-03-08T12:49:11.456Z,25.28
2019-03-08T12:50:16.964Z,26.18
2019-03-08T12:51:22.495Z,26.47
2019-03-08T12:52:28.027Z,26.76
2019-03-08T12:53:33.520Z,27.59
2019-03-08T12:54:39.059Z,28.56
2019-03-08T12:55:44.559Z,28.65
2019-03-08T12:56:50.076Z,28.93
2019-03-08T12:57:55.595Z,28.77
2019-03-08T12:59:01.111Z,27.58
2019-03-08T13:00:06.630Z,26.32
2019-03-08T13:01:12.182Z,25.50
2019-03-08T13:02:17.687Z,25.54
2019-03-08T13:03:23.201Z,25.28
2019-03-08T13:04:28.736Z,24.27
2019-03-08T13:05:34.240Z,23.47
2019-03-08T13:06:39.753Z,22.89
2019-03-08T13:07:45.271Z,23.35
2019-03-08T13:08:50.789Z,24.24
2019-03-08T13:09:56.305Z,25.12
2019-03-08T13:11:01.829Z,26.08
2019-03-08T13:12:07.343Z,27.21
2019-03-08T13:13:13.129Z,28.59
2019-03-08T13:14:18.382Z,29.72
2019-03-08T13:15:23.914Z,30.52
2019-03-08T13:16:29.424Z,30.99
2019-03-08T13:17:34.945Z,30.75
2019-03-08T13:18:40.478Z,29.33
2019-03-08T13:19:45.991Z,27.67
2019-03-08T13:20:51.515Z,26.49
2019-03-08T13:21:57.031Z,25.31
2019-03-08T13:23:02.558Z,24.42
2019-03-08T13:24:08.069Z,23.32
2019-03-08T13:25:13.594Z,22.62
2019-03-08T13:26:19.119Z,21.29
2019-03-08T13:27:24.629Z,20.74
2019-03-08T13:28:30.174Z,20.23
2019-03-08T13:29:35.670Z,19.83
2019-03-08T13:30:41.186Z,19.57
2019-03-08T13:31:46.704Z,19.24
2019-03-08T13:32:52.230Z,18.68
2019-03-08T13:33:57.751Z,18.18
2019-03-08T13:35:03.257Z,17.89
2019-03-08T13:36:08.768Z,17.35
2019-03-08T13:37:14.299Z,17.22
2019-03-08T13:38:19.806Z,16.92
2019-03-08T13:39:25.317Z,16.74
2019-03-08T13:40:30.835Z,16.34
2019-03-08T13:41:36.352Z,16.12
2019-03-08T13:42:41.866Z,15.86
2019-03-08T13:43:47.379Z,15.61
2019-03-08T13:44:52.895Z,17.87
2019-03-08T13:45:58.481Z,20.03
2019-03-08T13:47:03.929Z,22.37
2019-03-08T13:48:09.438Z,24.37
2019-03-08T13:49:14.958Z,25.93
2019-03-08T13:50:20.470Z,27.51
2019-03-08T13:51:26.021Z,28.95
2019-03-08T13:52:32.360Z,30.11
2019-03-08T13:53:37.016Z,31.33
2019-03-08T13:54:42.544Z,32.18
2019-03-08T13:55:48.051Z,32.91
2019-03-08T13:56:53.580Z,33.80
2019-03-08T13:57:59.104Z,34.26
2019-03-08T13:59:04.621Z,34.53
2019-03-08T14:00:10.133Z,33.55
2019-03-08T14:01:15.653Z,32.84
2019-03-08T14:02:21.173Z,31.13
2019-03-08T14:03:26.695Z,29.56
2019-03-08T14:04:32.216Z,28.28
2019-03-08T14:05:37.754Z,27.39
2019-03-08T14:06:43.267Z,26.39
2019-03-08T14:07:48.780Z,25.67
2019-03-08T14:08:54.309Z,24.92
2019-03-08T14:09:59.822Z,24.69
2019-03-08T14:11:05.343Z,24.14
2019-03-08T14:12:10.862Z,23.62
2019-03-08T14:13:16.377Z,23.23
2019-03-08T14:14:21.897Z,22.56
2019-03-08T14:15:27.425Z,21.95
2019-03-08T14:16:32.936Z,21.42
2019-03-08T14:17:38.465Z,20.89
2019-03-08T14:18:44.002Z,20.47